Terminal Aerodrome Forecast
Issued by NWS Omaha/Valley, NE

Home | Current Version | Previous Version | Text Only | Print | Product List | Glossary Off
Versions: 1 2 3 4 5 6 7 8 9 10 11 12 13 14 15 16 17 18 19 20 21 22 23 24 25 26

000
FTUS43 KOAX 312320
TAFOFK
TAF
KOFK 312320Z 0100/0124 19008KT P6SM SCT040 BKN150
     FM010200 19006KT P6SM SCT250
     FM010400 VRB04KT P6SM SCT030
     FM011500 16007KT P6SM BKN120=

USA.gov is the U.S. government's official web portal to all federal, state and local government web resources and services.